Dorman Products Inc (DORM) Latest Bloomsberg Price


Mffais Ranking #2110 Overall / #21 Industry
Industry: Auto Parts

Number of Companies: 155 (Ranking #1117 Overall/#16 Industry)
Inflow: $ 35,594 (K) (Ranking #1476 Overall/#18 Industry)
Outflow: $ -59,162 (K)
Mffais Flow: $ -23,568 (K) (Ranking #2110 Overall/#21 Industry)


Receive a FREE weekly executive review of stocks moving into the top 10, taking the top industy spot or moving up within their industry. Sent directly to your Inbox every Saturday. Sign up today and get last week's review immediately sent to you.

We value and respect your privacy. Please read our Terms and Conditions which states our firm commitment to your privacy. Your email address will not be shared with a third party, nor will it be sold or used for purposes other than subscription for the weekly review.

Owner CPOR Shares Action Qty Chg Invested (K) Total Current Value (K)
American Capital Management Inc 2016-09-30 309,800 New Holding 309,800 $ 17,528 $ 17,528
Tributary Capital Management Llc 2016-09-30 183,015 Added More 46,481 $ 2,629 $ 10,354
Congress Asset Management Co Ma 2016-09-30 793,173 Added More 38,153 $ 2,158 $ 44,877
Pnc Financial Services Group Inc 2016-09-30 956,400 Added More 31,362 $ 1,774 $ 54,113
Arrowpoint Asset Management Llc 2016-09-30 125,487 Added More 26,170 $ 1,480 $ 7,100
Legal General Group Plc 2016-09-30 27,841 Added More 21,108 $ 1,194 $ 1,575
Personal Capital Advisors Corp 2016-09-30 234,061 Added More 18,716 $ 1,058 $ 13,243
Columbia Wanger Asset Management Llc 2016-09-30 333,907 Added More 16,522 $ 934 $ 18,892
Old Mutual Global Investors Uk Ltd 2016-09-30 14,185 New Holding 14,185 $ 802 $ 802
Peak6 Investments L P 2016-09-30 11,400 New Holding 11,400 $ 645 $ 645
Smith Asset Management Group Lp 2016-09-30 8,460 New Holding 8,460 $ 478 $ 478
Sg Americas Securities Llc 2016-09-30 7,183 New Holding 7,183 $ 406 $ 406
Northern Trust Corp 2016-09-30 666,867 Added More 7,139 $ 403 $ 37,731
Kcg Holdings Inc 2016-09-30 5,698 New Holding 5,698 $ 322 $ 322
Wcm Investment Management Ca 2016-09-30 5,572 New Holding 5,572 $ 315 $ 315
Ahl Partners Llp 2016-09-30 5,344 New Holding 5,344 $ 302 $ 302
First National Bank Of Omaha 2016-09-30 17,445 Added More 5,070 $ 286 $ 987
Genesee Valley Trust Co 2016-09-30 4,728 New Holding 4,728 $ 267 $ 267
Dynamic Technology Lab Private Ltd 2016-09-30 4,245 New Holding 4,245 $ 240 $ 240
Jane Street Group Llc 2016-09-30 4,212 New Holding 4,212 $ 238 $ 238
Origin Asset Management Llp 2016-09-30 3,231 New Holding 3,231 $ 182 $ 182
Quadrature Capital Ltd 2016-09-30 3,200 New Holding 3,200 $ 181 $ 181
Sei Investments Co 2016-09-30 12,548 Added More 3,139 $ 177 $ 709
Moody Aldrich Partners Llc 2016-09-30 29,950 Added More 3,090 $ 174 $ 1,694
Telemus Capital Llc 2016-09-30 46,373 Added More 2,716 $ 153 $ 2,623
Rhumbline Advisers 2016-09-30 37,142 Added More 2,564 $ 145 $ 2,101
Independent Portfolio Consultants Inc 2016-09-30 14,325 Added More 2,345 $ 132 $ 810
Td Asset Management Inc 2016-09-30 14,441 Added More 2,300 $ 130 $ 817
Clark Capital Management Group Inc 2016-09-30 21,005 Added More 2,286 $ 129 $ 1,188
Cantab Capital Partners Llp 2016-09-30 12,560 Added More 2,045 $ 115 $ 710
Pacad Investment Ltd 2016-09-30 11,100 Added More 2,000 $ 113 $ 628
Creative Planning 2016-09-30 1,121 Added More 1,108 $ 62 $ 63
Thrivent Financial For Lutherans 2016-09-30 15,500 Added More 920 $ 52 $ 876
Comerica Bank 2016-09-30 32,079 Added More 910 $ 51 $ 1,815
Invictus Rg 2016-09-30 728 New Holding 728 $ 41 $ 41
California State Teachers Retirement System 2016-09-30 56,205 Added More 600 $ 33 $ 3,180
Ftb Advisors Inc 2016-09-30 1,170 Added More 561 $ 31 $ 66
Guggenheim Capital Llc 2016-09-30 5,546 Added More 527 $ 29 $ 313
Teachers Advisors Inc 2016-09-30 43,269 Added More 478 $ 27 $ 2,448
Blackrock Investment Management Llc 2016-09-30 111,888 Added More 369 $ 20 $ 6,330
Mason Street Advisors Llc 2016-09-30 6,248 Added More 361 $ 20 $ 353
Bessemer Group Inc 2016-09-30 480 Added More 312 $ 17 $ 27
Blackrock Inc 2016-09-30 2,410 Added More 242 $ 13 $ 136
Raymond James Associates 2016-09-30 32,236 Added More 232 $ 13 $ 1,823
Acrospire Investment Management Llc 2016-09-30 200 New Holding 200 $ 11 $ 11
Advisor Group Inc 2016-09-30 3,440 Added More 150 $ 8 $ 194
Ladenburg Thalmann Financial Services Inc 2016-09-30 1,179 Added More 149 $ 8 $ 66
Zurcher Kantonalbank Zurich Cantonalbank 2016-09-30 1,324 Added More 142 $ 8 $ 74
Aperio Group Llc 2016-09-30 8,048 Added More 119 $ 6 $ 455
Arizona State Retirement System 2016-09-30 15,733 Added More 100 $ 5 $ 890
Texas Permanent School Fund 2016-09-30 23,121 Added More 97 $ 5 $ 1,308
First Interstate Bank 2016-09-30 247 Added More 65 $ 3 $ 13
Ifp Advisors Inc 2016-09-30 158 Added More 62 $ 3 $ 8
Apriem Advisors 2016-09-30 58 New Holding 58 $ 3 $ 3
Pinebridge Investments L P 2016-09-30 3,858 Added More 39 $ 2 $ 218
Isthmus Partners Llc 2016-09-30 12,866 Added More 33 $ 1 $ 727
Finemark National Bank Trust 2016-09-30 1,302 Added More 22 $ 1 $ 73
American International Group Inc 2016-09-30 20,360 Added More 21 $ 1 $ 1,151
Cable Hill Partners Llc 2016-09-30 13 New Holding 13 $ 0 $ 0
Assetmark Inc 2016-09-30 110 Added More 11 $ 0 $ 6
Msi Financial Services Inc 2016-09-30 150 Added More 6 $ 0 $ 8
Dubuque Bank Trust Co 2016-09-30 133 No Change 0 $ 0 $ 7
Violich Capital Management Inc 2016-09-30 4,060 No Change 0 $ 0 $ 229
Sterling Capital Management Llc 2016-09-30 13,308 No Change 0 $ 0 $ 752
New York State Common Retirement Fund 2016-09-30 33,000 No Change 0 $ 0 $ 1,867
Teachers Retirement System Of The State Of Kentucky 2016-09-30 11,300 No Change 0 $ 0 $ 639
Advisory Services Network Llc 2016-09-30 61 No Change 0 $ 0 $ 3
Qs Investors Llc 2016-09-30 8 No Change 0 $ 0 $ 0
Horizon Kinetics Llc 2016-09-30 32,789 No Change 0 $ 0 $ 1,855
Lasalle Street Capital Management Llc 2016-09-30 3,548 No Change 0 $ 0 $ 200
Third Avenue Management Llc 2016-09-30 99,690 No Change 0 $ 0 $ 5,640
Bronfman E L Rothschild L P 2016-09-30 1,361 No Change 0 $ 0 $ 77
Quadrant Capital Group Llc 2016-09-30 368 No Change 0 $ 0 $ 20
Northwestern Mutual Wealth Management Co 2016-09-30 261 No Change 0 $ 0 $ 14
Sheets Smith Wealth Management 2016-09-30 4,135 No Change 0 $ 0 $ 233
Prescott Group Capital Management L L C 2016-09-30 14,989 No Change 0 $ 0 $ 848
Long Road Investment Counsel Llc 2016-09-30 28,300 No Change 0 $ 0 $ 1,601
Next Financial Group Inc 2016-09-30 45 No Change 0 $ 0 $ 2
Gemmer Asset Management Llc 2016-09-30 57 No Change 0 $ 0 $ 3
National Investment Services Inc Wi 2016-09-30 3,944 No Change 0 $ 0 $ 223
Nisa Investment Advisors Llc 2016-09-30 15,500 No Change 0 $ 0 $ 876
Ridgeworth Capital Management Llc 2016-09-30 7,035 No Change 0 $ 0 $ 398
Carroll Financial Associates Inc 2016-09-30 106 No Change 0 $ 0 $ 5
Public Sector Pension Investment Board 2016-09-30 21,357 No Change 0 $ 0 $ 1,208
Wealthtrust-Arizona Llc 2016-09-30 301 No Change 0 $ 0 $ 17
Ls Investment Advisors Llc 2016-09-30 1,105 No Change 0 $ 0 $ 62
Babson Capital Management Llc 2016-09-30 5,400 No Change 0 $ 0 $ 305
Intrust Bank Na 2016-09-30 9,734 Sold Some -9 $ -0 $ 550
Ngam Advisors L P 2016-09-30 21,842 Sold Some -15 $ -0 $ 1,235
Fifth Third Bancorp 2016-09-30 1,174 Sold Some -21 $ -1 $ 66
Kanaly Trust Co 2016-09-30 100 Sold Some -26 $ -1 $ 5
Parkside Financial Bank Trust 2016-09-30 876 Sold Some -28 $ -1 $ 49
Peoples United Financial Inc 2016-09-30 18,731 Sold Some -41 $ -2 $ 1,059
Citizens Financial Group Inc Ri 2016-09-30 80 Sold Some -52 $ -2 $ 4
Archford Capital Strategies Llc 2016-09-30 59 Sold Some -59 $ -3 $ 3
Tompkins Financial Corp 2016-09-30 460 Sold Some -75 $ -4 $ 26
Trust Co Of Vermont 2016-09-30 0 Sold All -79 $ -4 $ 0
Capstone Asset Management Co 2016-09-30 8,883 Sold Some -190 $ -10 $ 502
Regions Financial Corp 2016-09-30 8,995 Sold Some -191 $ -10 $ 508
Hsbc Holdings Plc 2016-09-30 6,675 Sold Some -238 $ -13 $ 377
Johnson Financial Group Inc 2016-09-30 275 Sold Some -275 $ -15 $ 15
Us Bancorp De 2016-09-30 75,504 Sold Some -296 $ -16 $ 4,272
Bb T Securities Llc 2016-09-30 3,866 Sold Some -339 $ -19 $ 218
Keybank National Association Oh 2016-09-30 7,713 Sold Some -344 $ -19 $ 436
Mai Capital Management 2016-09-30 15,758 Sold Some -375 $ -21 $ 891
Swiss National Bank 2016-09-30 50,600 Sold Some -400 $ -22 $ 2,862
State Of Tennessee Treasury Department 2016-09-30 24,049 Sold Some -530 $ -29 $ 1,360
J Safra Asset Management Corp 2016-09-30 0 Sold All -650 $ -36 $ 0
Profund Advisors Llc 2016-09-30 4,648 Sold Some -661 $ -37 $ 262
Proshare Advisors Llc 2016-09-30 3,218 Sold Some -701 $ -39 $ 182
Bb T Corp 2016-09-30 4,748 Sold Some -702 $ -39 $ 268
Alps Advisors Inc 2016-09-30 6,659 Sold Some -1,021 $ -57 $ 376
Teacher Retirement System Of Texas 2016-09-30 3,426 Sold Some -1,033 $ -58 $ 193
M T Bank Corp 2016-09-30 9,487 Sold Some -1,082 $ -61 $ 536
First Mercantile Trust Co 2016-09-30 9,236 Sold Some -1,110 $ -62 $ 522
Rice Hall James Associates Llc 2016-09-30 285,074 Sold Some -1,310 $ -74 $ 16,129
Wasatch Advisors Inc 2016-09-30 173,487 Sold Some -1,476 $ -83 $ 9,815
Wealthtrust Axiom Llc 2016-09-30 14,100 Sold Some -1,500 $ -84 $ 797
Parametric Portfolio Associates Llc 2016-09-30 89,265 Sold Some -1,664 $ -94 $ 5,050
Fdx Advisors Inc 2016-09-30 13,150 Sold Some -2,043 $ -115 $ 744
Henderson Group Plc 2016-09-30 335,828 Sold Some -2,244 $ -126 $ 19,001
Cortina Asset Management Llc 2016-09-30 162,019 Sold Some -2,803 $ -158 $ 9,167
Summit Creek Advisors Llc 2016-09-30 237,371 Sold Some -2,875 $ -162 $ 13,430
Weatherbie Capital Llc 2016-09-30 69,963 Sold Some -2,952 $ -167 $ 3,958
Minerva Advisors Llc 2016-09-30 42,640 Sold Some -3,000 $ -169 $ 2,412
Btim Corp 2016-09-30 535,014 Sold Some -3,132 $ -177 $ 30,271
Lebenthal Holdings Llc 2016-06-30 54,352 Sold Some -3,121 $ -178 $ 3,108
Bancorpsouth Inc 2016-09-30 0 Sold All -3,823 $ -216 $ 0
New York State Teachers Retirement System 2016-09-30 18,735 Sold Some -3,900 $ -220 $ 1,060
Walleye Trading Llc 2016-09-30 0 Sold All -4,000 $ -226 $ 0
Trexquant Investment Lp 2016-09-30 0 Sold All -5,734 $ -324 $ 0
Rk Asset Management Llc 2016-09-30 120,273 Sold Some -5,820 $ -329 $ 6,805
Bbva Compass Bancshares Inc 2016-09-30 5,489 Sold Some -7,270 $ -411 $ 310
Arbor Capital Management Llc 2016-06-30 42,063 Sold Some -7,519 $ -430 $ 2,406
Snyder Capital Management L P 2016-09-30 449,404 Sold Some -9,252 $ -523 $ 25,427
Dimensional Fund Advisors Lp 2016-09-30 835,953 Sold Some -9,267 $ -524 $ 47,298
1st Global Advisors Inc 2016-09-30 9,568 Sold Some -10,350 $ -585 $ 541
Emerald Acquisition Ltd 2016-09-30 147,160 Sold Some -16,613 $ -939 $ 8,326
Atlanta Capital Management Co L L C 2016-09-30 663,978 Sold Some -18,746 $ -1,060 $ 37,567
Nationwide Fund Advisors 2016-09-30 129,371 Sold Some -19,694 $ -1,114 $ 7,319
Riverbridge Partners Llc 2016-09-30 1,216,144 Sold Some -21,484 $ -1,215 $ 68,809
Gotham Asset Management Llc 2016-09-30 3,920 Sold Some -22,333 $ -1,263 $ 221
Taylor Cottrill Erickson Associates Inc 2016-09-30 0 Sold All -27,515 $ -1,556 $ 0
Lebenthal Asset Management Llc 2016-09-30 26,642 Sold Some -27,710 $ -1,567 $ 1,507
Envestnet Asset Management Inc 2016-09-30 50,057 Sold Some -28,335 $ -1,603 $ 2,832
Castleark Management Llc 2016-09-30 120,195 Sold Some -29,290 $ -1,657 $ 6,800
Kornitzer Capital Management Inc Ks 2016-09-30 238,425 Sold Some -32,255 $ -1,824 $ 13,490
Usa Financial Portformulas Corp 2016-09-30 5,354 Sold Some -33,828 $ -1,913 $ 302
Great Lakes Advisors Llc 2016-09-30 49,122 Sold Some -36,126 $ -2,044 $ 2,779
Otter Creek Advisors Llc 2016-09-30 0 Sold All -58,600 $ -3,315 $ 0
Fiera Capital Corp 2016-09-30 0 Sold All -67,502 $ -3,819 $ 0
Royce Associates Lp 2016-09-30 1,190,780 Sold Some -72,931 $ -4,126 $ 67,374
Ranger Investment Management L P 2016-09-30 333,680 Sold Some -88,270 $ -4,994 $ 18,879
Conestoga Capital Advisors Llc 2016-09-30 575,463 Sold Some -101,255 $ -5,729 $ 32,559
New South Capital Management Inc 2016-09-30 880,715 Sold Some -237,443 $ -13,434 $ 49,830